Terminal Aerodrome Forecast
Issued by NWS

Current Version | Previous Version | Text Only | Print | Product List | Glossary Off
Versions: 1 2 3 4 5 6 7 8 9 10 11 12 13 14 15 16 17 18 19 20 21 22

266
FTUS41 KPBZ 171136
TAFHLG
TAF
KHLG 171136Z 1712/1812 00000KT 1/2SM FG SCT001 BKN100
     FM171400 00000KT P6SM BKN050
     FM172200 00000KT P6SM SCT050
     FM180700 00000KT 3SM BR SKC=

USA.gov is the U.S. government's official web portal to all federal, state and local government web resources and services.